SCPB weather

Puelo Bajo Airport
Puelo Bajo, Los Lagos Region, Chile

Public forecast

Using degrees Celsius for public forecast. Weather courtesy of forecast.io.

METAR (pilot weather report)

Closest report is El Tepual Airport, 38.0 nm (70.4 km) WNW. Retrieved 2019/02/17 22:00 UTC (22 minutes ago):

SCTE 172200Z 24011KT 9999 SCT060 20/11 Q1013 NOSIG

TAF (pilot weather forecast)

Closest forecast is El Tepual Airport, 38.0 nm (70.4 km) WNW. Retrieved 2019/02/17 18:00 UTC (4 hours ago):

TAF SCTE 171609Z 1718/1818 VRB03KT 9999 SCT022 TX21/1720Z TN11/1810Z BECMG 1718/1720 22008KT CAVOK BECMG 1802/1804 03005KT SCT025 BECMG 1806/1808 03010KT SCT015 OVC025 BECMG 1811/1813 33015KT 4000 -RA OVC020 BECMG 1815/1817 29008KT 9999 NSW BKN030